Long Island, Maine
Current Conditions -  °F | °C
As of 7:51 AM on Friday 24 Oct 2014 (Local Time) from KPWM Reporting Station
Haze Haze  
Wind Chill: 44°   Ceiling: 1100
Heat Index: 49°   Visibility: 5mi
Dew Point: 45°   Wind: 13mph
Humidity: 86%   Direction: 350°N
Pressure: 29.68"   Gusts: NA
Location:  43.68°N, 70.17°W
Report Text: KPWM 241151Z 35011KT 5SM BR OVC011 09/07 A2968 RMK AO2 RAE49 SLP052 P0001 60031 70142 T00940072 10100 20089 53004
Loading
Personal Weather Stations






























Interactive Weather Map
Tropical Storm Tracking
New forecast layout! Learn more

10-Day Weather Forecast

Advertisements
Track Severe Weather on mobile